sensor_id;sensor_type;location;lat;lon;timestamp;pressure;altitude;pressure_sealevel;temperature;humidity
53262;BME280;39658;51.090;-1.786;2024-02-26T00:01:50;99069.63;;;3.63;100.00
53262;BME280;39658;51.090;-1.786;2024-02-26T00:04:19;99077.63;;;3.60;100.00
53262;BME280;39658;51.090;-1.786;2024-02-26T00:06:47;99080.25;;;3.60;100.00
53262;BME280;39658;51.090;-1.786;2024-02-26T00:09:15;99087.63;;;3.53;100.00
53262;BME280;39658;51.090;-1.786;2024-02-26T00:11:42;99077.19;;;3.53;100.00
53262;BME280;39658;51.090;-1.786;2024-02-26T00:14:09;99081.59;;;3.53;100.00
53262;BME280;39658;51.090;-1.786;2024-02-26T00:16:36;99090.41;;;3.50;100.00
53262;BME280;39658;51.090;-1.786;2024-02-26T00:19:03;99080.28;;;3.46;100.00
53262;BME280;39658;51.090;-1.786;2024-02-26T00:21:31;99090.81;;;3.44;100.00
53262;BME280;39658;51.090;-1.786;2024-02-26T00:23:58;99093.59;;;3.41;100.00
53262;BME280;39658;51.090;-1.786;2024-02-26T00:26:24;99097.31;;;3.37;100.00
53262;BME280;39658;51.090;-1.786;2024-02-26T00:28:51;99095.56;;;3.37;100.00
53262;BME280;39658;51.090;-1.786;2024-02-26T00:31:18;99104.94;;;3.40;100.00
53262;BME280;39658;51.090;-1.786;2024-02-26T00:33:45;99098.09;;;3.39;100.00
53262;BME280;39658;51.090;-1.786;2024-02-26T00:36:11;99087.75;;;3.37;100.00
53262;BME280;39658;51.090;-1.786;2024-02-26T00:38:39;99112.13;;;3.36;100.00
53262;BME280;39658;51.090;-1.786;2024-02-26T00:41:08;99115.75;;;3.34;100.00
53262;BME280;39658;51.090;-1.786;2024-02-26T00:43:35;99107.94;;;3.34;100.00
53262;BME280;39658;51.090;-1.786;2024-02-26T00:46:03;99102.09;;;3.30;100.00
53262;BME280;39658;51.090;-1.786;2024-02-26T00:48:30;99112.59;;;3.29;100.00
53262;BME280;39658;51.090;-1.786;2024-02-26T00:50:57;99119.50;;;3.30;100.00
53262;BME280;39658;51.090;-1.786;2024-02-26T00:53:24;99120.50;;;3.27;100.00
53262;BME280;39658;51.090;-1.786;2024-02-26T00:55:52;99121.53;;;3.24;100.00
53262;BME280;39658;51.090;-1.786;2024-02-26T00:58:19;99116.59;;;3.20;100.00
53262;BME280;39658;51.090;-1.786;2024-02-26T01:00:46;99113.97;;;3.20;100.00
53262;BME280;39658;51.090;-1.786;2024-02-26T01:03:13;99115.84;;;3.18;100.00
53262;BME280;39658;51.090;-1.786;2024-02-26T01:05:40;99125.44;;;3.17;100.00
53262;BME280;39658;51.090;-1.786;2024-02-26T01:08:07;99120.16;;;3.19;100.00
53262;BME280;39658;51.090;-1.786;2024-02-26T01:10:33;99131.56;;;3.16;100.00
53262;BME280;39658;51.090;-1.786;2024-02-26T01:13:02;99128.88;;;3.18;100.00
53262;BME280;39658;51.090;-1.786;2024-02-26T01:15:29;99133.34;;;3.16;100.00
53262;BME280;39658;51.090;-1.786;2024-02-26T01:17:55;99124.59;;;3.17;100.00
53262;BME280;39658;51.090;-1.786;2024-02-26T01:20:22;99114.94;;;3.19;100.00
53262;BME280;39658;51.090;-1.786;2024-02-26T01:22:49;99124.97;;;3.25;100.00
53262;BME280;39658;51.090;-1.786;2024-02-26T01:25:16;99118.91;;;3.24;100.00
53262;BME280;39658;51.090;-1.786;2024-02-26T01:27:43;99125.81;;;3.26;100.00
53262;BME280;39658;51.090;-1.786;2024-02-26T01:30:12;99122.00;;;3.31;100.00
53262;BME280;39658;51.090;-1.786;2024-02-26T01:32:41;99116.50;;;3.36;100.00
53262;BME280;39658;51.090;-1.786;2024-02-26T01:35:08;99111.94;;;3.39;100.00
53262;BME280;39658;51.090;-1.786;2024-02-26T01:37:37;99112.38;;;3.46;100.00
53262;BME280;39658;51.090;-1.786;2024-02-26T01:40:05;99113.69;;;3.53;100.00
53262;BME280;39658;51.090;-1.786;2024-02-26T01:42:32;99104.75;;;3.57;100.00
53262;BME280;39658;51.090;-1.786;2024-02-26T01:44:59;99116.72;;;3.60;100.00
53262;BME280;39658;51.090;-1.786;2024-02-26T01:47:27;99119.13;;;3.63;100.00
53262;BME280;39658;51.090;-1.786;2024-02-26T01:49:55;99121.84;;;3.62;100.00
53262;BME280;39658;51.090;-1.786;2024-02-26T01:52:22;99133.31;;;3.59;100.00
53262;BME280;39658;51.090;-1.786;2024-02-26T01:54:49;99146.16;;;3.62;100.00
53262;BME280;39658;51.090;-1.786;2024-02-26T01:57:16;99161.03;;;3.60;100.00
53262;BME280;39658;51.090;-1.786;2024-02-26T01:59:44;99179.38;;;3.58;100.00
53262;BME280;39658;51.090;-1.786;2024-02-26T02:02:11;99188.03;;;3.59;100.00
53262;BME280;39658;51.090;-1.786;2024-02-26T02:04:41;99212.31;;;3.59;100.00
53262;BME280;39658;51.090;-1.786;2024-02-26T02:07:08;99230.47;;;3.61;100.00
53262;BME280;39658;51.090;-1.786;2024-02-26T02:09:35;99245.47;;;3.57;100.00
53262;BME280;39658;51.090;-1.786;2024-02-26T02:12:02;99276.28;;;3.65;100.00
53262;BME280;39658;51.090;-1.786;2024-02-26T02:14:29;99308.41;;;3.66;100.00
53262;BME280;39658;51.090;-1.786;2024-02-26T02:16:55;99325.72;;;3.67;100.00
53262;BME280;39658;51.090;-1.786;2024-02-26T02:19:22;99338.56;;;3.70;100.00
53262;BME280;39658;51.090;-1.786;2024-02-26T02:21:50;99349.81;;;3.70;100.00
53262;BME280;39658;51.090;-1.786;2024-02-26T02:24:17;99354.47;;;3.65;100.00
53262;BME280;39658;51.090;-1.786;2024-02-26T02:26:45;99360.53;;;3.66;100.00
53262;BME280;39658;51.090;-1.786;2024-02-26T02:29:12;99373.47;;;3.67;100.00
53262;BME280;39658;51.090;-1.786;2024-02-26T02:31:39;99387.06;;;3.72;100.00
53262;BME280;39658;51.090;-1.786;2024-02-26T02:34:06;99393.78;;;3.76;100.00
53262;BME280;39658;51.090;-1.786;2024-02-26T02:36:34;99408.59;;;3.76;100.00
53262;BME280;39658;51.090;-1.786;2024-02-26T02:39:02;99417.25;;;3.76;100.00
53262;BME280;39658;51.090;-1.786;2024-02-26T02:41:29;99425.16;;;3.75;100.00
53262;BME280;39658;51.090;-1.786;2024-02-26T02:43:56;99424.97;;;3.78;100.00
53262;BME280;39658;51.090;-1.786;2024-02-26T02:46:23;99451.69;;;3.82;100.00
53262;BME280;39658;51.090;-1.786;2024-02-26T02:48:49;99440.25;;;3.84;100.00
53262;BME280;39658;51.090;-1.786;2024-02-26T02:51:16;99455.13;;;3.82;100.00
53262;BME280;39658;51.090;-1.786;2024-02-26T02:53:43;99460.44;;;3.81;100.00
53262;BME280;39658;51.090;-1.786;2024-02-26T02:56:11;99462.13;;;3.82;100.00
53262;BME280;39658;51.090;-1.786;2024-02-26T02:58:38;99478.59;;;3.82;100.00
53262;BME280;39658;51.090;-1.786;2024-02-26T03:01:05;99491.72;;;3.81;100.00
53262;BME280;39658;51.090;-1.786;2024-02-26T03:03:32;99503.00;;;3.81;100.00
53262;BME280;39658;51.090;-1.786;2024-02-26T03:05:58;99509.13;;;3.80;100.00
53262;BME280;39658;51.090;-1.786;2024-02-26T03:08:26;99518.91;;;3.76;100.00
53262;BME280;39658;51.090;-1.786;2024-02-26T03:10:53;99535.28;;;3.78;100.00
53262;BME280;39658;51.090;-1.786;2024-02-26T03:13:22;99538.06;;;3.75;100.00
53262;BME280;39658;51.090;-1.786;2024-02-26T03:15:48;99551.19;;;3.74;100.00
53262;BME280;39658;51.090;-1.786;2024-02-26T03:18:15;99562.66;;;3.71;100.00
53262;BME280;39658;51.090;-1.786;2024-02-26T03:20:42;99612.78;;;3.76;100.00
53262;BME280;39658;51.090;-1.786;2024-02-26T03:23:09;99618.97;;;3.74;100.00
53262;BME280;39658;51.090;-1.786;2024-02-26T03:25:38;99620.75;;;3.73;100.00
53262;BME280;39658;51.090;-1.786;2024-02-26T03:28:05;99627.75;;;3.73;100.00
53262;BME280;39658;51.090;-1.786;2024-02-26T03:30:34;99654.56;;;3.75;100.00
53262;BME280;39658;51.090;-1.786;2024-02-26T03:33:01;99662.31;;;3.76;100.00
53262;BME280;39658;51.090;-1.786;2024-02-26T03:35:27;99671.78;;;3.77;100.00
53262;BME280;39658;51.090;-1.786;2024-02-26T03:37:54;99677.00;;;3.77;100.00
53262;BME280;39658;51.090;-1.786;2024-02-26T03:40:21;99671.53;;;3.82;100.00
53262;BME280;39658;51.090;-1.786;2024-02-26T03:42:48;99689.88;;;3.81;100.00
53262;BME280;39658;51.090;-1.786;2024-02-26T03:45:14;99697.69;;;3.81;100.00
53262;BME280;39658;51.090;-1.786;2024-02-26T03:47:42;99707.03;;;3.85;100.00
53262;BME280;39658;51.090;-1.786;2024-02-26T03:50:09;99707.22;;;3.82;100.00
53262;BME280;39658;51.090;-1.786;2024-02-26T03:52:36;99713.19;;;3.84;100.00
53262;BME280;39658;51.090;-1.786;2024-02-26T03:55:03;99735.88;;;3.82;100.00
53262;BME280;39658;51.090;-1.786;2024-02-26T03:57:30;99732.38;;;3.83;100.00
53262;BME280;39658;51.090;-1.786;2024-02-26T03:59:57;99734.13;;;3.82;100.00
53262;BME280;39658;51.090;-1.786;2024-02-26T04:02:24;99749.69;;;3.84;100.00
53262;BME280;39658;51.090;-1.786;2024-02-26T04:04:52;99762.72;;;3.84;100.00
53262;BME280;39658;51.090;-1.786;2024-02-26T04:07:19;99768.78;;;3.84;100.00
53262;BME280;39658;51.090;-1.786;2024-02-26T04:09:45;99780.97;;;3.84;100.00
53262;BME280;39658;51.090;-1.786;2024-02-26T04:12:12;99790.50;;;3.85;100.00
53262;BME280;39658;51.090;-1.786;2024-02-26T04:14:39;99787.03;;;3.84;100.00
53262;BME280;39658;51.090;-1.786;2024-02-26T04:17:06;99792.34;;;3.83;100.00
53262;BME280;39658;51.090;-1.786;2024-02-26T04:19:33;99807.22;;;3.81;100.00
53262;BME280;39658;51.090;-1.786;2024-02-26T04:22:01;99805.69;;;3.76;100.00
53262;BME280;39658;51.090;-1.786;2024-02-26T04:24:28;99819.56;;;3.77;100.00
53262;BME280;39658;51.090;-1.786;2024-02-26T04:26:55;99825.72;;;3.76;100.00
53262;BME280;39658;51.090;-1.786;2024-02-26T04:29:22;99835.38;;;3.74;100.00
53262;BME280;39658;51.090;-1.786;2024-02-26T04:31:48;99838.06;;;3.72;100.00
53262;BME280;39658;51.090;-1.786;2024-02-26T04:34:15;99850.19;;;3.73;100.00
53262;BME280;39658;51.090;-1.786;2024-02-26T04:36:42;99839.69;;;3.75;100.00
53262;BME280;39658;51.090;-1.786;2024-02-26T04:39:10;99859.78;;;3.73;100.00
53262;BME280;39658;51.090;-1.786;2024-02-26T04:41:37;99852.78;;;3.73;100.00
53262;BME280;39658;51.090;-1.786;2024-02-26T04:44:04;99859.84;;;3.71;100.00
53262;BME280;39658;51.090;-1.786;2024-02-26T04:46:32;99871.03;;;3.73;100.00
53262;BME280;39658;51.090;-1.786;2024-02-26T04:48:58;99872.75;;;3.74;100.00
53262;BME280;39658;51.090;-1.786;2024-02-26T04:51:25;99882.38;;;3.72;100.00
53262;BME280;39658;51.090;-1.786;2024-02-26T04:53:52;99902.31;;;3.73;100.00
53262;BME280;39658;51.090;-1.786;2024-02-26T04:56:21;99906.88;;;3.70;100.00
53262;BME280;39658;51.090;-1.786;2024-02-26T04:58:48;99908.53;;;3.71;100.00
53262;BME280;39658;51.090;-1.786;2024-02-26T05:01:15;99910.31;;;3.70;100.00
53262;BME280;39658;51.090;-1.786;2024-02-26T05:03:42;99921.63;;;3.69;100.00
53262;BME280;39658;51.090;-1.786;2024-02-26T05:06:09;99922.59;;;3.68;100.00
53262;BME280;39658;51.090;-1.786;2024-02-26T05:08:36;99937.66;;;3.62;100.00
53262;BME280;39658;51.090;-1.786;2024-02-26T05:11:04;99953.38;;;3.60;100.00
53262;BME280;39658;51.090;-1.786;2024-02-26T05:13:32;99960.38;;;3.59;100.00
53262;BME280;39658;51.090;-1.786;2024-02-26T05:15:59;99962.22;;;3.57;100.00
53262;BME280;39658;51.090;-1.786;2024-02-26T05:18:26;99963.34;;;3.52;100.00
53262;BME280;39658;51.090;-1.786;2024-02-26T05:20:53;99961.03;;;3.46;100.00
53262;BME280;39658;51.090;-1.786;2024-02-26T05:23:19;99982.88;;;3.43;100.00
53262;BME280;39658;51.090;-1.786;2024-02-26T05:25:46;99996.84;;;3.42;100.00
53262;BME280;39658;51.090;-1.786;2024-02-26T05:28:13;99991.56;;;3.44;100.00
53262;BME280;39658;51.090;-1.786;2024-02-26T05:30:43;100001.84;;;3.47;100.00
53262;BME280;39658;51.090;-1.786;2024-02-26T05:33:10;100001.91;;;3.45;100.00
53262;BME280;39658;51.090;-1.786;2024-02-26T05:35:37;100002.75;;;3.46;100.00
53262;BME280;39658;51.090;-1.786;2024-02-26T05:38:04;100018.31;;;3.47;100.00
53262;BME280;39658;51.090;-1.786;2024-02-26T05:40:30;100019.13;;;3.48;100.00
53262;BME280;39658;51.090;-1.786;2024-02-26T05:42:57;100000.00;;;3.49;100.00
53262;BME280;39658;51.090;-1.786;2024-02-26T05:45:24;100014.88;;;3.47;100.00
53262;BME280;39658;51.090;-1.786;2024-02-26T05:47:52;100021.13;;;3.42;100.00
53262;BME280;39658;51.090;-1.786;2024-02-26T05:50:19;100025.28;;;3.47;100.00
53262;BME280;39658;51.090;-1.786;2024-02-26T05:52:46;100033.09;;;3.47;100.00
53262;BME280;39658;51.090;-1.786;2024-02-26T05:55:13;100033.09;;;3.47;100.00
53262;BME280;39658;51.090;-1.786;2024-02-26T05:57:40;100042.38;;;3.52;100.00
53262;BME280;39658;51.090;-1.786;2024-02-26T06:00:08;100048.44;;;3.53;100.00
53262;BME280;39658;51.090;-1.786;2024-02-26T06:02:34;100050.25;;;3.51;100.00
53262;BME280;39658;51.090;-1.786;2024-02-26T06:05:03;100053.88;;;3.48;100.00
53262;BME280;39658;51.090;-1.786;2024-02-26T06:07:30;100061.78;;;3.47;100.00
53262;BME280;39658;51.090;-1.786;2024-02-26T06:09:57;100071.25;;;3.48;100.00
53262;BME280;39658;51.090;-1.786;2024-02-26T06:12:24;100078.31;;;3.46;100.00
53262;BME280;39658;51.090;-1.786;2024-02-26T06:14:51;100072.28;;;3.45;100.00
53262;BME280;39658;51.090;-1.786;2024-02-26T06:17:18;100101.63;;;3.49;100.00
53262;BME280;39658;51.090;-1.786;2024-02-26T06:19:45;100092.13;;;3.48;100.00
53262;BME280;39658;51.090;-1.786;2024-02-26T06:22:13;100116.44;;;3.48;100.00
53262;BME280;39658;51.090;-1.786;2024-02-26T06:24:40;100089.44;;;3.49;100.00
53262;BME280;39658;51.090;-1.786;2024-02-26T06:27:07;100101.84;;;3.44;100.00
53262;BME280;39658;51.090;-1.786;2024-02-26T06:29:34;100121.84;;;3.44;100.00
53262;BME280;39658;51.090;-1.786;2024-02-26T06:32:00;100132.22;;;3.45;100.00
53262;BME280;39658;51.090;-1.786;2024-02-26T06:34:28;100124.59;;;3.40;100.00
53262;BME280;39658;51.090;-1.786;2024-02-26T06:36:55;100135.88;;;3.41;100.00
53262;BME280;39658;51.090;-1.786;2024-02-26T06:39:23;100142.44;;;3.50;100.00
53262;BME280;39658;51.090;-1.786;2024-02-26T06:41:51;100153.91;;;3.46;100.00
53262;BME280;39658;51.090;-1.786;2024-02-26T06:44:25;100159.94;;;3.46;100.00
53262;BME280;39658;51.090;-1.786;2024-02-26T06:46:57;100169.81;;;3.39;100.00
53262;BME280;39658;51.090;-1.786;2024-02-26T06:49:23;100173.03;;;3.45;100.00
53262;BME280;39658;51.090;-1.786;2024-02-26T06:51:50;100178.84;;;3.51;100.00
53262;BME280;39658;51.090;-1.786;2024-02-26T06:54:17;100191.06;;;3.49;100.00
53262;BME280;39658;51.090;-1.786;2024-02-26T06:56:46;100197.84;;;3.53;100.00
53262;BME280;39658;51.090;-1.786;2024-02-26T06:59:13;100210.81;;;3.55;100.00
53262;BME280;39658;51.090;-1.786;2024-02-26T07:01:40;100196.94;;;3.54;100.00
53262;BME280;39658;51.090;-1.786;2024-02-26T07:04:07;100201.28;;;3.54;100.00
53262;BME280;39658;51.090;-1.786;2024-02-26T07:06:36;100205.38;;;3.40;100.00
53262;BME280;39658;51.090;-1.786;2024-02-26T07:09:03;100216.16;;;3.52;100.00
53262;BME280;39658;51.090;-1.786;2024-02-26T07:11:30;100225.56;;;3.56;100.00
53262;BME280;39658;51.090;-1.786;2024-02-26T07:13:58;100227.56;;;3.49;100.00
53262;BME280;39658;51.090;-1.786;2024-02-26T07:16:26;100228.44;;;3.50;100.00
53262;BME280;39658;51.090;-1.786;2024-02-26T07:18:53;100239.00;;;3.47;100.00
53262;BME280;39658;51.090;-1.786;2024-02-26T07:21:20;100251.56;;;3.57;100.00
53262;BME280;39658;51.090;-1.786;2024-02-26T07:23:47;100256.63;;;3.61;100.00
53262;BME280;39658;51.090;-1.786;2024-02-26T07:26:14;100256.56;;;3.62;100.00
53262;BME280;39658;51.090;-1.786;2024-02-26T07:28:42;100250.22;;;3.68;100.00
53262;BME280;39658;51.090;-1.786;2024-02-26T07:31:11;100250.06;;;3.71;100.00
53262;BME280;39658;51.090;-1.786;2024-02-26T07:33:37;100260.78;;;3.65;100.00
53262;BME280;39658;51.090;-1.786;2024-02-26T07:36:04;100267.50;;;3.70;100.00
53262;BME280;39658;51.090;-1.786;2024-02-26T07:38:31;100271.00;;;3.69;100.00
53262;BME280;39658;51.090;-1.786;2024-02-26T07:40:58;100273.25;;;3.77;100.00
53262;BME280;39658;51.090;-1.786;2024-02-26T07:43:25;100290.41;;;3.83;100.00
53262;BME280;39658;51.090;-1.786;2024-02-26T07:45:52;100300.84;;;3.83;100.00
53262;BME280;39658;51.090;-1.786;2024-02-26T07:48:20;100295.63;;;3.83;100.00
53262;BME280;39658;51.090;-1.786;2024-02-26T07:50:46;100305.78;;;3.89;100.00
53262;BME280;39658;51.090;-1.786;2024-02-26T07:53:13;100315.41;;;3.87;100.00
53262;BME280;39658;51.090;-1.786;2024-02-26T07:55:40;100329.88;;;3.94;100.00
53262;BME280;39658;51.090;-1.786;2024-02-26T07:58:07;100336.94;;;3.92;100.00
53262;BME280;39658;51.090;-1.786;2024-02-26T08:00:34;100349.72;;;3.98;100.00
53262;BME280;39658;51.090;-1.786;2024-02-26T08:03:01;100364.34;;;4.01;100.00
53262;BME280;39658;51.090;-1.786;2024-02-26T08:05:29;100376.56;;;4.00;100.00
53262;BME280;39658;51.090;-1.786;2024-02-26T08:07:56;100383.69;;;3.97;100.00
53262;BME280;39658;51.090;-1.786;2024-02-26T08:10:23;100398.81;;;3.88;100.00
53262;BME280;39658;51.090;-1.786;2024-02-26T08:12:50;100416.34;;;3.85;100.00
53262;BME280;39658;51.090;-1.786;2024-02-26T08:15:17;100432.91;;;3.84;100.00
53262;BME280;39658;51.090;-1.786;2024-02-26T08:17:44;100455.53;;;3.83;100.00
53262;BME280;39658;51.090;-1.786;2024-02-26T08:20:13;100461.47;;;3.87;100.00
53262;BME280;39658;51.090;-1.786;2024-02-26T08:22:41;100473.66;;;3.86;100.00
53262;BME280;39658;51.090;-1.786;2024-02-26T08:25:08;100488.88;;;3.76;100.00
53262;BME280;39658;51.090;-1.786;2024-02-26T08:27:36;100498.34;;;3.77;100.00
53262;BME280;39658;51.090;-1.786;2024-02-26T08:30:04;100517.53;;;3.76;100.00
53262;BME280;39658;51.090;-1.786;2024-02-26T08:32:31;100525.00;;;3.86;100.00
53262;BME280;39658;51.090;-1.786;2024-02-26T08:34:58;100519.66;;;3.89;100.00
53262;BME280;39658;51.090;-1.786;2024-02-26T08:37:25;100534.13;;;3.96;100.00
53262;BME280;39658;51.090;-1.786;2024-02-26T08:39:53;100524.28;;;4.03;100.00
53262;BME280;39658;51.090;-1.786;2024-02-26T08:42:20;100530.41;;;4.02;100.00
53262;BME280;39658;51.090;-1.786;2024-02-26T08:44:48;100527.69;;;4.05;100.00
53262;BME280;39658;51.090;-1.786;2024-02-26T08:47:15;100522.19;;;4.11;100.00
53262;BME280;39658;51.090;-1.786;2024-02-26T08:49:43;100512.47;;;4.14;100.00
53262;BME280;39658;51.090;-1.786;2024-02-26T08:52:10;100502.78;;;4.18;100.00
53262;BME280;39658;51.090;-1.786;2024-02-26T08:54:37;100493.75;;;4.25;100.00
53262;BME280;39658;51.090;-1.786;2024-02-26T08:57:06;100483.84;;;4.34;100.00
53262;BME280;39658;51.090;-1.786;2024-02-26T08:59:32;100466.53;;;4.31;100.00
53262;BME280;39658;51.090;-1.786;2024-02-26T09:01:59;100457.53;;;4.38;100.00
53262;BME280;39658;51.090;-1.786;2024-02-26T09:04:26;100450.75;;;4.34;100.00
53262;BME280;39658;51.090;-1.786;2024-02-26T09:06:53;100440.09;;;4.39;100.00
53262;BME280;39658;51.090;-1.786;2024-02-26T09:09:20;100464.44;;;4.39;100.00
53262;BME280;39658;51.090;-1.786;2024-02-26T09:11:50;100459.28;;;4.57;100.00
53262;BME280;39658;51.090;-1.786;2024-02-26T09:14:19;100453.38;;;4.72;100.00
53262;BME280;39658;51.090;-1.786;2024-02-26T09:16:45;100457.81;;;4.70;100.00
53262;BME280;39658;51.090;-1.786;2024-02-26T09:19:13;100460.38;;;4.53;100.00
53262;BME280;39658;51.090;-1.786;2024-02-26T09:21:42;100479.28;;;4.58;100.00
53262;BME280;39658;51.090;-1.786;2024-02-26T09:24:09;100482.88;;;4.55;100.00
53262;BME280;39658;51.090;-1.786;2024-02-26T09:26:36;100485.59;;;4.52;100.00
53262;BME280;39658;51.090;-1.786;2024-02-26T09:29:03;100501.19;;;4.74;100.00
53262;BME280;39658;51.090;-1.786;2024-02-26T09:31:31;100488.81;;;5.16;100.00
53262;BME280;39658;51.090;-1.786;2024-02-26T09:33:59;100505.41;;;5.15;100.00
53262;BME280;39658;51.090;-1.786;2024-02-26T09:36:26;100494.88;;;5.16;100.00
53262;BME280;39658;51.090;-1.786;2024-02-26T09:38:53;100513.94;;;5.18;100.00
53262;BME280;39658;51.090;-1.786;2024-02-26T09:41:20;100515.94;;;5.13;100.00
53262;BME280;39658;51.090;-1.786;2024-02-26T09:43:48;100513.28;;;4.96;100.00
53262;BME280;39658;51.090;-1.786;2024-02-26T09:46:18;100514.41;;;5.46;100.00
53262;BME280;39658;51.090;-1.786;2024-02-26T09:48:47;100518.75;;;5.28;100.00
53262;BME280;39658;51.090;-1.786;2024-02-26T09:51:14;100510.78;;;5.12;100.00
53262;BME280;39658;51.090;-1.786;2024-02-26T09:53:43;100531.63;;;5.13;100.00
53262;BME280;39658;51.090;-1.786;2024-02-26T09:56:11;100538.44;;;5.54;100.00
53262;BME280;39658;51.090;-1.786;2024-02-26T09:58:39;100545.59;;;5.68;100.00
53262;BME280;39658;51.090;-1.786;2024-02-26T10:01:10;100548.53;;;5.62;100.00
53262;BME280;39658;51.090;-1.786;2024-02-26T10:03:39;100548.97;;;5.52;100.00
53262;BME280;39658;51.090;-1.786;2024-02-26T10:06:08;100564.31;;;5.41;100.00
53262;BME280;39658;51.090;-1.786;2024-02-26T10:08:35;100562.81;;;5.35;100.00
53262;BME280;39658;51.090;-1.786;2024-02-26T10:11:03;100570.75;;;5.34;100.00
53262;BME280;39658;51.090;-1.786;2024-02-26T10:13:30;100582.25;;;5.49;100.00
53262;BME280;39658;51.090;-1.786;2024-02-26T10:15:57;100589.31;;;5.66;100.00
53262;BME280;39658;51.090;-1.786;2024-02-26T10:18:25;100584.63;;;5.72;100.00
53262;BME280;39658;51.090;-1.786;2024-02-26T10:20:59;100588.13;;;5.90;100.00
53262;BME280;39658;51.090;-1.786;2024-02-26T10:23:28;100624.41;;;5.79;100.00
53262;BME280;39658;51.090;-1.786;2024-02-26T10:25:55;100617.66;;;5.75;100.00
53262;BME280;39658;51.090;-1.786;2024-02-26T10:28:22;100615.88;;;5.75;100.00
53262;BME280;39658;51.090;-1.786;2024-02-26T10:30:51;100632.41;;;5.76;100.00
53262;BME280;39658;51.090;-1.786;2024-02-26T10:33:18;100662.59;;;7.57;100.00
53262;BME280;39658;51.090;-1.786;2024-02-26T10:35:46;100630.00;;;6.62;100.00
53262;BME280;39658;51.090;-1.786;2024-02-26T10:38:13;100633.88;;;6.37;100.00
53262;BME280;39658;51.090;-1.786;2024-02-26T10:40:44;100650.09;;;6.44;100.00
53262;BME280;39658;51.090;-1.786;2024-02-26T10:43:11;100659.44;;;6.67;100.00
53262;BME280;39658;51.090;-1.786;2024-02-26T10:45:39;100661.94;;;6.86;100.00
53262;BME280;39658;51.090;-1.786;2024-02-26T10:48:10;100649.72;;;6.52;100.00
53262;BME280;39658;51.090;-1.786;2024-02-26T10:50:38;100661.88;;;6.35;100.00
53262;BME280;39658;51.090;-1.786;2024-02-26T10:53:19;100658.81;;;7.94;100.00
53262;BME280;39658;51.090;-1.786;2024-02-26T10:55:49;100627.03;;;8.45;100.00
53262;BME280;39658;51.090;-1.786;2024-02-26T10:58:19;100629.88;;;9.01;100.00
53262;BME280;39658;51.090;-1.786;2024-02-26T11:00:47;100626.78;;;12.69;100.00
53262;BME280;39658;51.090;-1.786;2024-02-26T11:03:15;100555.47;;;13.24;100.00
53262;BME280;39658;51.090;-1.786;2024-02-26T11:05:46;100519.00;;;12.14;100.00
53262;BME280;39658;51.090;-1.786;2024-02-26T11:08:14;100552.13;;;9.66;100.00
53262;BME280;39658;51.090;-1.786;2024-02-26T11:10:42;100570.19;;;8.58;100.00
53262;BME280;39658;51.090;-1.786;2024-02-26T11:13:12;100593.09;;;7.80;100.00
53262;BME280;39658;51.090;-1.786;2024-02-26T11:15:41;100632.66;;;7.61;100.00
53262;BME280;39658;51.090;-1.786;2024-02-26T11:18:08;100654.75;;;7.72;100.00
53262;BME280;39658;51.090;-1.786;2024-02-26T11:20:38;100652.38;;;8.91;100.00
53262;BME280;39658;51.090;-1.786;2024-02-26T11:23:07;100645.16;;;8.80;100.00
53262;BME280;39658;51.090;-1.786;2024-02-26T11:25:34;100635.28;;;9.56;100.00
53262;BME280;39658;51.090;-1.786;2024-02-26T11:28:04;100611.50;;;10.24;100.00
53262;BME280;39658;51.090;-1.786;2024-02-26T11:30:36;100613.03;;;9.74;100.00
53262;BME280;39658;51.090;-1.786;2024-02-26T11:33:06;100606.53;;;10.07;100.00
53262;BME280;39658;51.090;-1.786;2024-02-26T11:35:35;100617.28;;;9.89;100.00
53262;BME280;39658;51.090;-1.786;2024-02-26T11:38:03;100620.56;;;10.60;100.00
53262;BME280;39658;51.090;-1.786;2024-02-26T11:40:32;100611.00;;;9.65;100.00
53262;BME280;39658;51.090;-1.786;2024-02-26T11:42:59;100588.06;;;10.34;100.00
53262;BME280;39658;51.090;-1.786;2024-02-26T11:45:58;100609.38;;;10.70;100.00
53262;BME280;39658;51.090;-1.786;2024-02-26T11:48:25;100564.44;;;13.67;100.00
53262;BME280;39658;51.090;-1.786;2024-02-26T11:50:55;100555.47;;;15.15;100.00
53262;BME280;39658;51.090;-1.786;2024-02-26T11:53:23;100546.66;;;15.94;100.00
53262;BME280;39658;51.090;-1.786;2024-02-26T11:58:59;100535.09;;;17.82;100.00
53262;BME280;39658;51.090;-1.786;2024-02-26T12:04:24;100531.28;;;18.20;89.20
53262;BME280;39658;51.090;-1.786;2024-02-26T12:06:56;100531.50;;;16.72;86.65
53262;BME280;39658;51.090;-1.786;2024-02-26T12:09:36;100564.84;;;17.13;91.89
53262;BME280;39658;51.090;-1.786;2024-02-26T12:12:04;100561.47;;;14.55;91.46
53262;BME280;39658;51.090;-1.786;2024-02-26T12:14:33;100569.69;;;13.11;100.00
53262;BME280;39658;51.090;-1.786;2024-02-26T12:17:03;100589.84;;;11.48;100.00
53262;BME280;39658;51.090;-1.786;2024-02-26T12:19:33;100588.91;;;9.80;100.00
53262;BME280;39658;51.090;-1.786;2024-02-26T12:22:01;100620.75;;;9.77;100.00
53262;BME280;39658;51.090;-1.786;2024-02-26T12:24:28;100601.75;;;11.91;100.00
53262;BME280;39658;51.090;-1.786;2024-02-26T12:26:55;100594.41;;;14.74;100.00
53262;BME280;39658;51.090;-1.786;2024-02-26T12:29:23;100608.81;;;12.03;100.00
53262;BME280;39658;51.090;-1.786;2024-02-26T12:31:50;100612.19;;;9.74;100.00
53262;BME280;39658;51.090;-1.786;2024-02-26T12:34:18;100634.69;;;10.19;100.00
53262;BME280;39658;51.090;-1.786;2024-02-26T12:36:45;100653.53;;;9.15;100.00
53262;BME280;39658;51.090;-1.786;2024-02-26T12:39:12;100669.41;;;8.55;100.00
53262;BME280;39658;51.090;-1.786;2024-02-26T12:41:39;100681.41;;;8.89;100.00
53262;BME280;39658;51.090;-1.786;2024-02-26T12:44:08;100664.16;;;9.00;100.00
53262;BME280;39658;51.090;-1.786;2024-02-26T12:46:34;100685.47;;;8.95;100.00
53262;BME280;39658;51.090;-1.786;2024-02-26T12:49:01;100682.81;;;9.38;100.00
53262;BME280;39658;51.090;-1.786;2024-02-26T12:51:30;100688.69;;;9.43;100.00